Time;durP1;ratioP1;P1;durP2;ratioP2;P2;SDS_P1;SDS_P2;PMS_P1;PMS_P2;Temp;Humidity;BMP_temperature;BMP_pressure;BME280_temperature;BME280_humidity;BME280_pressure;Samples;Min_cycle;Max_cycle;Signal;HPM_P1;HPM_P2
2021/12/17 00:03:07;;;;;;;31.63;15.73;;;;;;;;;;4794418;29;20054;-77
2021/12/17 00:04:36;;;;;;;29.10;15.32;;;;;;;;;;4819433;29;20058;-79
2021/12/17 00:07:03;;;;;;;25.92;14.32;;;;;;;;;;4825730;29;20058;-78
2021/12/17 00:09:30;;;;;;;23.67;14.57;;;;;;;;;;4807255;29;20122;-77
2021/12/17 00:11:56;;;;;;;21.88;14.18;;;;;;;;;;4825458;29;20058;-78
2021/12/17 00:14:28;;;;;;;23.92;15.00;;;;;;;;;;4810044;29;20440;-78
2021/12/17 00:16:55;;;;;;;21.23;13.63;;;;;;;;;;4793622;29;20062;-77
2021/12/17 00:19:37;;;;;;;24.98;14.18;;;;;;;;;;4809669;29;20054;-78
2021/12/17 00:49:22;;;;;;;35.78;16.23;;;;;;;;;;4809082;29;20054;-77
2021/12/17 00:52:01;;;;;;;60.03;18.30;;;;;;;;;;4809878;29;20054;-78
2021/12/17 00:54:33;;;;;;;72.35;18.63;;;;;;;;;;4791237;29;20508;-77
2021/12/17 00:57:01;;;;;;;56.90;17.92;;;;;;;;;;4823147;29;20478;-77
2021/12/17 00:59:28;;;;;;;58.88;18.02;;;;;;;;;;4808918;29;20061;-78
2021/12/17 01:01:56;;;;;;;44.35;18.02;;;;;;;;;;4809301;29;20059;-78
2021/12/17 01:04:22;;;;;;;35.03;16.05;;;;;;;;;;4825113;29;20054;-77
2021/12/17 01:06:48;;;;;;;94.28;18.73;;;;;;;;;;4809608;29;20349;-77
2021/12/17 01:09:16;;;;;;;34.25;15.45;;;;;;;;;;4809178;29;20065;-78
2021/12/17 01:11:43;;;;;;;34.55;14.18;;;;;;;;;;4809300;29;20062;-76
2021/12/17 01:14:09;;;;;;;38.50;15.82;;;;;;;;;;4808597;29;20061;-77
2021/12/17 01:16:35;;;;;;;38.85;14.30;;;;;;;;;;4793788;29;20064;-78
2021/12/17 01:21:57;;;;;;;110.55;17.38;;;;;;;;;;4809078;29;20471;-78
2021/12/17 01:24:37;;;;;;;41.38;13.55;;;;;;;;;;4808758;29;20125;-78
2021/12/17 01:43:12;;;;;;;36.72;12.38;;;;;;;;;;4809025;29;20050;-78
2021/12/17 01:45:39;;;;;;;36.40;12.30;;;;;;;;;;4802062;29;20046;-78
2021/12/17 01:48:09;;;;;;;24.95;11.25;;;;;;;;;;4807750;29;20376;-78
2021/12/17 02:01:27;;;;;;;45.00;13.43;;;;;;;;;;4827751;29;20468;-78
2021/12/17 02:03:54;;;;;;;33.28;13.82;;;;;;;;;;4812130;29;20141;-77
2021/12/17 02:06:21;;;;;;;33.85;13.20;;;;;;;;;;4828004;29;20448;-77
2021/12/17 02:08:49;;;;;;;43.42;13.57;;;;;;;;;;4811890;29;20476;-79
2021/12/17 02:12:14;;;;;;;34.58;13.48;;;;;;;;;;4795822;29;20059;-78
2021/12/17 02:20:12;;;;;;;43.00;16.10;;;;;;;;;;4793909;29;20059;-77
2021/12/17 02:23:06;;;;;;;37.72;15.45;;;;;;;;;;4809004;29;20062;-78
2021/12/17 02:31:04;;;;;;;39.55;14.13;;;;;;;;;;4812034;29;20062;-78
2021/12/17 02:33:30;;;;;;;33.25;14.15;;;;;;;;;;4809603;29;20062;-77
2021/12/17 02:35:56;;;;;;;52.42;15.52;;;;;;;;;;4811201;29;20098;-77
2021/12/17 02:38:23;;;;;;;35.78;13.52;;;;;;;;;;4811479;29;20042;-78
2021/12/17 02:46:23;;;;;;;40.10;12.48;;;;;;;;;;4793740;29;20058;-77
2021/12/17 02:48:49;;;;;;;38.28;13.70;;;;;;;;;;4778200;29;20179;-78
2021/12/17 02:51:15;;;;;;;42.65;13.73;;;;;;;;;;4793190;29;20472;-79
2021/12/17 02:53:41;;;;;;;63.05;13.18;;;;;;;;;;4809476;29;20038;-78
2021/12/17 02:56:08;;;;;;;52.95;13.20;;;;;;;;;;4795523;29;20047;-79
2021/12/17 02:58:35;;;;;;;61.60;13.57;;;;;;;;;;4809890;29;20072;-77
2021/12/17 03:01:03;;;;;;;50.85;11.85;;;;;;;;;;4809181;29;20050;-78
2021/12/17 03:03:32;;;;;;;32.70;11.18;;;;;;;;;;4805253;29;20115;-77
2021/12/17 03:05:58;;;;;;;66.38;12.90;;;;;;;;;;4792309;29;20059;-77
2021/12/17 03:08:24;;;;;;;32.95;11.35;;;;;;;;;;4795053;29;20357;-78
2021/12/17 03:10:51;;;;;;;66.68;12.50;;;;;;;;;;4792377;29;20115;-78
2021/12/17 03:13:22;;;;;;;30.90;11.70;;;;;;;;;;4801491;29;20100;-76
2021/12/17 03:24:10;;;;;;;32.88;10.50;;;;;;;;;;4809184;29;20047;-77
2021/12/17 03:26:36;;;;;;;43.47;11.30;;;;;;;;;;4810245;29;20102;-77
2021/12/17 03:29:06;;;;;;;48.33;11.73;;;;;;;;;;4810619;29;20055;-77
2021/12/17 03:31:32;;;;;;;24.05;9.68;;;;;;;;;;4810467;29;20145;-79
2021/12/17 03:34:10;;;;;;;31.63;10.95;;;;;;;;;;4805289;29;20054;-78
2021/12/17 03:36:36;;;;;;;28.73;10.00;;;;;;;;;;4809734;29;20206;-77
2021/12/17 03:39:03;;;;;;;39.15;11.30;;;;;;;;;;4810683;29;20050;-77
2021/12/17 03:41:37;;;;;;;27.35;10.45;;;;;;;;;;4794993;29;20467;-77
2021/12/17 03:44:03;;;;;;;48.90;11.80;;;;;;;;;;4810044;29;20175;-78
2021/12/17 03:46:29;;;;;;;24.35;10.20;;;;;;;;;;4810081;29;20061;-79
2021/12/17 03:48:56;;;;;;;49.10;11.73;;;;;;;;;;4826743;29;20049;-77
2021/12/17 03:51:22;;;;;;;39.95;10.50;;;;;;;;;;4795078;29;20103;-78
2021/12/17 03:53:51;;;;;;;30.23;10.82;;;;;;;;;;4809877;29;20065;-78
2021/12/17 03:56:18;;;;;;;47.35;10.55;;;;;;;;;;4791795;29;20095;-77
2021/12/17 03:58:44;;;;;;;42.45;12.20;;;;;;;;;;4792359;29;20054;-77
2021/12/17 04:01:10;;;;;;;34.30;11.10;;;;;;;;;;4791778;29;20057;-78
2021/12/17 04:03:37;;;;;;;38.17;12.05;;;;;;;;;;4821571;29;20349;-77
2021/12/17 04:06:03;;;;;;;47.45;11.70;;;;;;;;;;4810431;29;20436;-77
2021/12/17 04:08:29;;;;;;;32.08;10.18;;;;;;;;;;4809839;29;20054;-79
2021/12/17 04:11:03;;;;;;;52.40;11.32;;;;;;;;;;4809617;29;20548;-78
2021/12/17 04:13:34;;;;;;;28.17;10.23;;;;;;;;;;4804983;29;20042;-77
2021/12/17 04:16:04;;;;;;;34.15;11.15;;;;;;;;;;4826201;29;20192;-78
2021/12/17 04:18:30;;;;;;;36.40;11.05;;;;;;;;;;4810026;29;20140;-77
2021/12/17 04:20:59;;;;;;;54.08;11.00;;;;;;;;;;4810336;29;20086;-77
2021/12/17 04:23:25;;;;;;;30.83;10.25;;;;;;;;;;4809624;29;20065;-79
2021/12/17 04:25:51;;;;;;;33.80;10.55;;;;;;;;;;4809182;29;20058;-78
2021/12/17 04:28:18;;;;;;;39.55;9.90;;;;;;;;;;4809453;29;20058;-78
2021/12/17 04:30:45;;;;;;;28.60;9.63;;;;;;;;;;4825733;29;20075;-79
2021/12/17 04:33:12;;;;;;;25.80;9.73;;;;;;;;;;4809312;29;20133;-78
2021/12/17 04:35:39;;;;;;;31.70;10.63;;;;;;;;;;4803440;29;20503;-78
2021/12/17 04:38:07;;;;;;;30.30;10.50;;;;;;;;;;4803040;29;20050;-79
2021/12/17 04:40:34;;;;;;;34.40;10.85;;;;;;;;;;4809424;29;20050;-77
2021/12/17 04:43:20;;;;;;;36.05;10.07;;;;;;;;;;4825699;29;20058;-78
2021/12/17 04:46:14;;;;;;;;;;;;;;;;;;4810578;29;20119;-78
2021/12/17 04:59:39;;;;;;;26.27;9.95;;;;;;;;;;4825260;29;20050;-77
2021/12/17 05:02:05;;;;;;;20.98;8.80;;;;;;;;;;4808199;29;20058;-77
2021/12/17 05:04:31;;;;;;;24.45;9.43;;;;;;;;;;4808565;29;20077;-77
2021/12/17 05:06:57;;;;;;;26.80;9.57;;;;;;;;;;4824409;29;20054;-77
2021/12/17 05:09:51;;;;;;;27.48;9.95;;;;;;;;;;4808492;29;20077;-77
2021/12/17 05:18:16;;;;;;;27.73;9.52;;;;;;;;;;4736732;30;20080;-78
2021/12/17 05:20:51;;;;;;;30.45;10.43;;;;;;;;;;4802776;29;20150;-77
2021/12/17 05:23:24;;;;;;;24.98;9.38;;;;;;;;;;4809071;29;20054;-78
2021/12/17 05:25:50;;;;;;;29.55;10.13;;;;;;;;;;4790425;29;20365;-78
2021/12/17 05:28:17;;;;;;;20.65;9.45;;;;;;;;;;4791850;29;20057;-78
2021/12/17 05:30:46;;;;;;;35.95;10.57;;;;;;;;;;4810633;29;20047;-79
2021/12/17 05:33:19;;;;;;;21.55;9.20;;;;;;;;;;4804268;29;20474;-77
2021/12/17 05:35:46;;;;;;;24.02;10.38;;;;;;;;;;4807889;29;20058;-78
2021/12/17 05:38:13;;;;;;;26.65;10.98;;;;;;;;;;4812395;29;20119;-78
2021/12/17 05:40:40;;;;;;;26.10;9.93;;;;;;;;;;4797278;29;20065;-78
2021/12/17 05:43:06;;;;;;;21.33;9.68;;;;;;;;;;4794278;29;20058;-78
2021/12/17 05:48:09;;;;;;;20.63;9.27;;;;;;;;;;4811733;29;20046;-77
2021/12/17 05:50:37;;;;;;;23.98;9.50;;;;;;;;;;4794106;29;20066;-76
2021/12/17 05:53:04;;;;;;;23.42;9.27;;;;;;;;;;4817925;29;20050;-77
2021/12/17 05:55:30;;;;;;;26.33;9.15;;;;;;;;;;4827844;29;20086;-78
2021/12/17 05:57:56;;;;;;;31.75;9.88;;;;;;;;;;4797045;29;20050;-78
2021/12/17 06:00:23;;;;;;;27.77;9.73;;;;;;;;;;4813075;29;20134;-79
2021/12/17 06:02:50;;;;;;;22.92;9.48;;;;;;;;;;4827290;29;20065;-78
2021/12/17 06:05:17;;;;;;;27.35;9.85;;;;;;;;;;4811180;29;20145;-77
2021/12/17 06:07:43;;;;;;;25.00;9.75;;;;;;;;;;4811959;29;20050;-78
2021/12/17 06:10:09;;;;;;;29.05;9.77;;;;;;;;;;4804715;29;20065;-77
2021/12/17 06:12:39;;;;;;;17.95;8.98;;;;;;;;;;4794027;29;20058;-77
2021/12/17 06:15:08;;;;;;;20.20;9.70;;;;;;;;;;4810087;29;20138;-77
2021/12/17 06:17:34;;;;;;;25.10;10.63;;;;;;;;;;4794310;29;20066;-77
2021/12/17 06:20:00;;;;;;;25.50;10.68;;;;;;;;;;4809086;29;20062;-78
2021/12/17 06:22:26;;;;;;;23.08;10.20;;;;;;;;;;4811866;29;20116;-77
2021/12/17 06:24:52;;;;;;;23.55;10.50;;;;;;;;;;4783289;30;20134;-78
2021/12/17 06:27:20;;;;;;;21.50;9.45;;;;;;;;;;4775991;30;20061;-78
2021/12/17 06:29:46;;;;;;;22.02;10.07;;;;;;;;;;4776558;30;20086;-77
2021/12/17 06:32:12;;;;;;;24.33;10.05;;;;;;;;;;4776489;29;20055;-79
2021/12/17 06:34:39;;;;;;;24.63;9.95;;;;;;;;;;4820005;29;20057;-79
2021/12/17 06:37:06;;;;;;;21.83;9.85;;;;;;;;;;4810970;29;20054;-78
2021/12/17 06:39:32;;;;;;;26.67;10.80;;;;;;;;;;4802393;29;20448;-77
2021/12/17 06:41:59;;;;;;;25.00;10.68;;;;;;;;;;4794083;29;20066;-77
2021/12/17 06:44:26;;;;;;;24.92;11.07;;;;;;;;;;4778635;29;20142;-77
2021/12/17 06:54:54;;;;;;;20.25;10.07;;;;;;;;;;4817349;29;20059;-78
2021/12/17 07:10:44;;;;;;;25.50;11.82;;;;;;;;;;4809035;29;20066;-78
2021/12/17 07:19:24;;;;;;;30.98;13.30;;;;;;;;;;4827210;29;20082;-77
2021/12/17 07:39:40;;;;;;;20.90;10.80;;;;;;;;;;4824936;29;20440;-76
2021/12/17 07:42:06;;;;;;;23.98;11.00;;;;;;;;;;4810676;29;20073;-78
2021/12/17 07:44:32;;;;;;;28.70;11.50;;;;;;;;;;4810106;29;20058;-79
2021/12/17 07:46:58;;;;;;;23.80;10.88;;;;;;;;;;4810278;29;20083;-76
2021/12/17 07:49:24;;;;;;;23.25;10.85;;;;;;;;;;4810427;29;20077;-77
2021/12/17 07:51:50;;;;;;;29.98;11.50;;;;;;;;;;4796395;29;20050;-78
2021/12/17 07:54:17;;;;;;;27.48;11.65;;;;;;;;;;4822888;29;20145;-76
2021/12/17 07:56:43;;;;;;;22.75;10.82;;;;;;;;;;4807318;29;20059;-77
2021/12/17 07:59:10;;;;;;;23.25;10.82;;;;;;;;;;4823868;29;20059;-78
2021/12/17 08:01:37;;;;;;;23.77;10.55;;;;;;;;;;4809065;29;20054;-77
2021/12/17 08:04:04;;;;;;;24.33;10.48;;;;;;;;;;4809100;29;20046;-76
2021/12/17 08:06:30;;;;;;;21.25;10.50;;;;;;;;;;4810358;29;20139;-77
2021/12/17 08:08:56;;;;;;;24.02;11.35;;;;;;;;;;4800063;29;20066;-79
2021/12/17 08:11:22;;;;;;;20.02;11.05;;;;;;;;;;4792025;29;20054;-76
2021/12/17 08:13:50;;;;;;;24.65;10.88;;;;;;;;;;4791239;29;20062;-78
2021/12/17 08:32:05;;;;;;;20.45;9.73;;;;;;;;;;4791654;29;20141;-78
2021/12/17 08:34:32;;;;;;;19.30;9.98;;;;;;;;;;4806679;29;20057;-76
2021/12/17 08:36:58;;;;;;;22.88;10.98;;;;;;;;;;4776191;29;20062;-77
2021/12/17 08:39:31;;;;;;;22.75;10.38;;;;;;;;;;4806812;29;20116;-81
2021/12/17 08:42:00;;;;;;;15.50;9.02;;;;;;;;;;4776631;29;20055;-76
2021/12/17 08:44:28;;;;;;;17.05;9.52;;;;;;;;;;4791052;29;20090;-76
2021/12/17 08:46:54;;;;;;;14.57;8.75;;;;;;;;;;4807159;29;20054;-78
2021/12/17 08:49:20;;;;;;;17.70;9.40;;;;;;;;;;4792118;29;20061;-79
2021/12/17 08:51:46;;;;;;;14.63;8.65;;;;;;;;;;4791726;29;20127;-76
2021/12/17 08:54:12;;;;;;;18.02;8.48;;;;;;;;;;4791049;29;20055;-78
2021/12/17 08:56:43;;;;;;;13.00;7.85;;;;;;;;;;4807010;29;20051;-77
2021/12/17 08:59:09;;;;;;;16.00;8.68;;;;;;;;;;4776434;29;20054;-78
2021/12/17 09:01:35;;;;;;;14.02;7.90;;;;;;;;;;4806527;29;20043;-75
2021/12/17 09:04:02;;;;;;;10.93;7.45;;;;;;;;;;4790664;29;20096;-78
2021/12/17 09:06:28;;;;;;;9.80;6.47;;;;;;;;;;4789984;29;20059;-79
2021/12/17 09:08:55;;;;;;;11.07;5.30;;;;;;;;;;4793022;29;20054;-78
2021/12/17 09:11:25;;;;;;;7.28;4.95;;;;;;;;;;4809340;29;20057;-78
2021/12/17 09:13:52;;;;;;;7.40;4.45;;;;;;;;;;4807180;29;20061;-79
2021/12/17 09:16:20;;;;;;;5.70;4.10;;;;;;;;;;4804832;29;20034;-78
2021/12/17 09:18:47;;;;;;;5.85;3.50;;;;;;;;;;4809635;29;20054;-78
2021/12/17 09:21:13;;;;;;;4.95;2.60;;;;;;;;;;4786009;29;20058;-79
2021/12/17 09:23:40;;;;;;;3.17;2.65;;;;;;;;;;4806714;29;20149;-78
2021/12/17 09:26:06;;;;;;;3.35;2.80;;;;;;;;;;4809409;29;20046;-78
2021/12/17 09:28:32;;;;;;;4.85;3.30;;;;;;;;;;4794050;29;20051;-78
2021/12/17 09:30:58;;;;;;;4.68;3.58;;;;;;;;;;4809201;29;20062;-78
2021/12/17 09:33:25;;;;;;;5.75;4.10;;;;;;;;;;4808619;29;20061;-79
2021/12/17 09:35:52;;;;;;;5.97;4.07;;;;;;;;;;4825271;29;20054;-78
2021/12/17 09:38:19;;;;;;;6.13;4.00;;;;;;;;;;4804956;29;20047;-77
2021/12/17 09:40:45;;;;;;;6.75;3.85;;;;;;;;;;4807808;29;20333;-78
2021/12/17 09:43:15;;;;;;;5.05;3.70;;;;;;;;;;4808538;29;20050;-85
2021/12/17 09:45:41;;;;;;;10.60;4.80;;;;;;;;;;4793885;29;20129;-78
2021/12/17 09:48:07;;;;;;;5.30;3.95;;;;;;;;;;4793759;29;20083;-80
2021/12/17 09:50:34;;;;;;;5.82;3.80;;;;;;;;;;4808798;29;20061;-77
2021/12/17 09:53:00;;;;;;;6.43;3.75;;;;;;;;;;4807706;29;20421;-77
2021/12/17 09:55:26;;;;;;;4.45;3.78;;;;;;;;;;4793548;29;20066;-78
2021/12/17 09:57:53;;;;;;;6.90;3.95;;;;;;;;;;4790766;29;20055;-79
2021/12/17 10:00:20;;;;;;;5.03;4.10;;;;;;;;;;4802623;29;20109;-78
2021/12/17 10:02:48;;;;;;;4.70;3.63;;;;;;;;;;4802420;29;20098;-78
2021/12/17 10:05:26;;;;;;;5.72;3.85;;;;;;;;;;4805386;29;20475;-78
2021/12/17 10:08:00;;;;;;;6.10;3.83;;;;;;;;;;4790409;29;20062;-77
2021/12/17 10:10:34;;;;;;;4.45;3.55;;;;;;;;;;4789130;29;20062;-77
2021/12/17 10:13:11;;;;;;;4.65;3.60;;;;;;;;;;4789803;29;20067;-78
2021/12/17 10:15:38;;;;;;;6.00;3.67;;;;;;;;;;4792244;29;20488;-78
2021/12/17 10:18:05;;;;;;;5.40;3.92;;;;;;;;;;4794009;29;20050;-77
2021/12/17 10:20:35;;;;;;;8.18;4.28;;;;;;;;;;4793052;29;20054;-79
2021/12/17 10:23:11;;;;;;;4.85;4.00;;;;;;;;;;4793780;29;20079;-78
2021/12/17 10:25:37;;;;;;;;;;;;;;;;;;4794101;29;20042;-77
2021/12/17 10:28:06;;;;;;;5.68;4.32;;;;;;;;;;4791916;29;19939;-79
2021/12/17 10:30:33;;;;;;;6.53;5.00;;;;;;;;;;4789892;30;20035;-78
2021/12/17 10:33:01;;;;;;;7.75;4.55;;;;;;;;;;4775850;30;20100;-78
2021/12/17 10:35:29;;;;;;;6.25;4.90;;;;;;;;;;4776089;30;20055;-80
2021/12/17 10:37:58;;;;;;;8.75;5.57;;;;;;;;;;4786879;29;20368;-77
2021/12/17 10:40:28;;;;;;;6.55;5.53;;;;;;;;;;4793499;29;20069;-78
2021/12/17 10:43:08;;;;;;;7.80;5.75;;;;;;;;;;4793819;29;20051;-79
2021/12/17 10:45:37;;;;;;;7.85;5.45;;;;;;;;;;4793943;29;20085;-80
2021/12/17 10:51:16;;;;;;;6.88;5.22;;;;;;;;;;4793143;29;20046;-79
2021/12/17 10:53:45;;;;;;;6.28;5.07;;;;;;;;;;4793603;29;20120;-78
2021/12/17 10:56:15;;;;;;;6.78;5.82;;;;;;;;;;4793766;29;20065;-80
2021/12/17 10:58:52;;;;;;;7.93;5.85;;;;;;;;;;4782274;29;20051;-77
2021/12/17 11:01:18;;;;;;;7.93;5.97;;;;;;;;;;4790105;30;20119;-78
2021/12/17 11:03:44;;;;;;;10.68;6.75;;;;;;;;;;4775212;30;20044;-80
2021/12/17 11:06:11;;;;;;;9.20;6.72;;;;;;;;;;4775170;30;20091;-79
2021/12/17 11:08:39;;;;;;;7.57;6.18;;;;;;;;;;4776553;29;20105;-78
2021/12/17 11:11:09;;;;;;;8.43;5.68;;;;;;;;;;4827144;29;20071;-78
2021/12/17 11:13:36;;;;;;;7.50;6.20;;;;;;;;;;4794580;29;20039;-80
2021/12/17 11:16:03;;;;;;;8.27;6.40;;;;;;;;;;4810197;29;20095;-77
2021/12/17 11:18:29;;;;;;;8.15;6.07;;;;;;;;;;4824772;29;20061;-78
2021/12/17 11:20:56;;;;;;;11.80;6.22;;;;;;;;;;4810633;29;20050;-76
2021/12/17 11:23:23;;;;;;;9.05;5.13;;;;;;;;;;4810710;29;20050;-77
2021/12/17 11:25:53;;;;;;;8.50;5.35;;;;;;;;;;4825866;29;20122;-76
2021/12/17 11:28:20;;;;;;;14.55;5.63;;;;;;;;;;4809475;29;20452;-76
2021/12/17 11:30:47;;;;;;;5.72;4.47;;;;;;;;;;4810315;29;20065;-75
2021/12/17 11:33:14;;;;;;;6.65;5.07;;;;;;;;;;4825944;29;20062;-77
2021/12/17 11:35:46;;;;;;;5.90;4.57;;;;;;;;;;4794290;29;20059;-77
2021/12/17 11:38:15;;;;;;;6.75;4.80;;;;;;;;;;4810046;29;20383;-76
2021/12/17 11:40:53;;;;;;;6.55;5.18;;;;;;;;;;4795677;29;20491;-76
2021/12/17 11:43:36;;;;;;;8.07;5.57;;;;;;;;;;4810383;29;20058;-83
2021/12/17 11:46:07;;;;;;;6.97;4.85;;;;;;;;;;4810425;29;20057;-76
2021/12/17 11:48:35;;;;;;;8.38;5.35;;;;;;;;;;4810070;29;20050;-77
2021/12/17 11:51:04;;;;;;;7.22;5.32;;;;;;;;;;4810368;29;20069;-79
2021/12/17 11:53:30;;;;;;;5.47;4.93;;;;;;;;;;4810034;29;20433;-76
2021/12/17 11:55:58;;;;;;;9.52;5.63;;;;;;;;;;4810643;29;20054;-78
2021/12/17 11:58:42;;;;;;;6.38;4.95;;;;;;;;;;4804600;29;20456;-80
2021/12/17 12:01:08;;;;;;;11.88;5.63;;;;;;;;;;4805762;29;20121;-78
2021/12/17 12:03:34;;;;;;;8.23;5.40;;;;;;;;;;4816203;29;20466;-78
2021/12/17 12:06:00;;;;;;;6.53;5.07;;;;;;;;;;4806858;29;20062;-77
2021/12/17 12:08:30;;;;;;;6.65;4.82;;;;;;;;;;4789276;29;20050;-79
2021/12/17 12:11:05;;;;;;;7.88;5.55;;;;;;;;;;4807108;29;20149;-77
2021/12/17 12:13:35;;;;;;;6.15;5.05;;;;;;;;;;4805451;29;20051;-77
2021/12/17 12:16:05;;;;;;;8.48;4.90;;;;;;;;;;4792329;29;20100;-78
2021/12/17 12:18:42;;;;;;;6.40;4.93;;;;;;;;;;4796897;29;20058;-77
2021/12/17 12:21:09;;;;;;;6.05;4.70;;;;;;;;;;4809534;29;20046;-78
2021/12/17 12:23:37;;;;;;;7.03;5.07;;;;;;;;;;4806498;29;20169;-77
2021/12/17 12:26:03;;;;;;;7.28;5.55;;;;;;;;;;4812046;29;20141;-77
2021/12/17 12:28:47;;;;;;;7.18;5.28;;;;;;;;;;4806983;29;20363;-78
2021/12/17 12:31:13;;;;;;;6.90;5.07;;;;;;;;;;4792289;29;20062;-80
2021/12/17 12:33:58;;;;;;;7.20;4.80;;;;;;;;;;4824300;29;20058;-77
2021/12/17 12:36:44;;;;;;;7.82;4.38;;;;;;;;;;4810058;29;20084;-78
2021/12/17 12:39:19;;;;;;;6.55;5.43;;;;;;;;;;4808254;29;20106;-78
2021/12/17 12:41:49;;;;;;;6.20;3.97;;;;;;;;;;4799505;29;20071;-78
2021/12/17 12:44:16;;;;;;;5.10;4.30;;;;;;;;;;4805107;29;20072;-78
2021/12/17 12:46:49;;;;;;;6.47;4.43;;;;;;;;;;4823746;29;20050;-77
2021/12/17 12:49:34;;;;;;;7.45;4.47;;;;;;;;;;4824419;29;20050;-77
2021/12/17 12:52:16;;;;;;;5.53;4.15;;;;;;;;;;4805761;29;20050;-82
2021/12/17 12:54:42;;;;;;;5.47;3.80;;;;;;;;;;4806384;29;20372;-77
2021/12/17 12:57:09;;;;;;;6.00;3.70;;;;;;;;;;4807864;29;20502;-77
2021/12/17 12:59:35;;;;;;;6.10;3.80;;;;;;;;;;4824451;29;20467;-78
2021/12/17 13:02:01;;;;;;;4.85;3.92;;;;;;;;;;4808432;29;20058;-79
2021/12/17 13:04:31;;;;;;;4.05;3.65;;;;;;;;;;4824119;29;20071;-78
2021/12/17 13:06:57;;;;;;;6.55;3.70;;;;;;;;;;4808751;29;20140;-78
2021/12/17 13:09:30;;;;;;;4.50;3.60;;;;;;;;;;4793603;29;20058;-77
2021/12/17 13:11:56;;;;;;;5.22;3.63;;;;;;;;;;4802058;29;20043;-78
2021/12/17 13:14:25;;;;;;;6.13;3.50;;;;;;;;;;4798892;29;20082;-77
2021/12/17 13:17:16;;;;;;;4.75;3.55;;;;;;;;;;4804134;29;20081;-78
2021/12/17 13:23:01;;;;;;;7.22;3.70;;;;;;;;;;4752958;30;20067;-78
2021/12/17 13:25:28;;;;;;;9.80;4.07;;;;;;;;;;4815385;29;20059;-79
2021/12/17 13:27:55;;;;;;;5.45;3.95;;;;;;;;;;4788815;29;20133;-78
2021/12/17 13:30:25;;;;;;;5.70;3.75;;;;;;;;;;4818551;29;20141;-82
2021/12/17 13:32:51;;;;;;;4.20;3.80;;;;;;;;;;4823199;29;20061;-78
2021/12/17 13:35:18;;;;;;;4.45;3.55;;;;;;;;;;4807158;29;20085;-80
2021/12/17 13:37:45;;;;;;;7.30;4.28;;;;;;;;;;4791844;29;20535;-81
2021/12/17 13:40:12;;;;;;;6.95;4.07;;;;;;;;;;4799703;29;20046;-79
2021/12/17 13:42:43;;;;;;;4.57;3.70;;;;;;;;;;4803747;29;20047;-79
2021/12/17 13:45:10;;;;;;;5.70;3.67;;;;;;;;;;4806452;29;20054;-78
2021/12/17 13:47:39;;;;;;;5.07;3.75;;;;;;;;;;4804010;29;20050;-79
2021/12/17 13:50:25;;;;;;;5.13;3.78;;;;;;;;;;4810697;29;20055;-79
2021/12/17 13:52:53;;;;;;;5.75;3.95;;;;;;;;;;4810856;29;20078;-81
2021/12/17 13:55:37;;;;;;;6.93;4.07;;;;;;;;;;4812352;29;20082;-79
2021/12/17 13:58:06;;;;;;;6.05;4.05;;;;;;;;;;4794747;29;20062;-80
2021/12/17 14:00:40;;;;;;;7.75;4.47;;;;;;;;;;4810393;29;20061;-81
2021/12/17 14:03:09;;;;;;;5.53;4.22;;;;;;;;;;4802942;29;20582;-79
2021/12/17 14:05:49;;;;;;;5.03;4.22;;;;;;;;;;4809619;29;20050;-81
2021/12/17 14:08:18;;;;;;;7.25;4.38;;;;;;;;;;4796158;29;20367;-80
2021/12/17 14:10:44;;;;;;;7.45;5.15;;;;;;;;;;4813426;29;20054;-79
2021/12/17 14:13:16;;;;;;;7.10;5.45;;;;;;;;;;4792950;29;20047;-79
2021/12/17 14:15:46;;;;;;;8.27;4.93;;;;;;;;;;4808758;29;20051;-79
2021/12/17 14:18:15;;;;;;;6.05;4.60;;;;;;;;;;4805779;29;20050;-79
2021/12/17 14:20:43;;;;;;;5.35;4.13;;;;;;;;;;4811547;29;20042;-79
2021/12/17 14:23:13;;;;;;;5.55;4.38;;;;;;;;;;4811619;29;20133;-79
2021/12/17 14:25:44;;;;;;;5.68;4.75;;;;;;;;;;4811498;29;20039;-79
2021/12/17 14:28:15;;;;;;;5.65;4.53;;;;;;;;;;4792558;29;20161;-80
2021/12/17 14:31:01;;;;;;;8.38;4.65;;;;;;;;;;4808083;29;20068;-79
2021/12/17 14:33:33;;;;;;;8.25;4.85;;;;;;;;;;4804456;29;20441;-78
2021/12/17 14:36:01;;;;;;;6.53;4.70;;;;;;;;;;4809480;29;20054;-78
2021/12/17 14:38:40;;;;;;;6.55;5.00;;;;;;;;;;4810608;29;20068;-77
2021/12/17 14:41:07;;;;;;;7.07;5.50;;;;;;;;;;4817656;29;20062;-79
2021/12/17 14:43:45;;;;;;;7.38;5.18;;;;;;;;;;4810754;29;20050;-77
2021/12/17 14:46:20;;;;;;;7.57;5.03;;;;;;;;;;4805333;29;20050;-79
2021/12/17 14:49:01;;;;;;;7.50;5.15;;;;;;;;;;4809873;29;20046;-79
2021/12/17 14:58:22;;;;;;;9.18;5.45;;;;;;;;;;4811469;29;20082;-78
2021/12/17 15:05:09;;;;;;;7.65;5.45;;;;;;;;;;4810876;29;20069;-78
2021/12/17 15:07:35;;;;;;;10.50;5.78;;;;;;;;;;4810712;29;20471;-78
2021/12/17 15:10:03;;;;;;;10.00;6.10;;;;;;;;;;4807251;29;20077;-79
2021/12/17 15:14:59;;;;;;;7.25;5.50;;;;;;;;;;4811008;29;20050;-78
2021/12/17 15:17:25;;;;;;;9.10;5.45;;;;;;;;;;4811357;29;20054;-80
2021/12/17 15:19:51;;;;;;;9.63;6.10;;;;;;;;;;4810593;29;20046;-80
2021/12/17 15:22:20;;;;;;;7.90;5.90;;;;;;;;;;4810847;29;20053;-81
2021/12/17 15:24:46;;;;;;;9.55;6.38;;;;;;;;;;4825678;29;20046;-80
2021/12/17 15:27:13;;;;;;;8.07;6.10;;;;;;;;;;4793730;29;20058;-82
2021/12/17 15:29:39;;;;;;;11.43;6.53;;;;;;;;;;4795692;29;20038;-81
2021/12/17 15:32:06;;;;;;;9.75;7.38;;;;;;;;;;4794830;29;20536;-79
2021/12/17 15:34:32;;;;;;;9.93;6.80;;;;;;;;;;4795400;29;20046;-81
2021/12/17 15:36:59;;;;;;;11.43;6.85;;;;;;;;;;4791725;29;20051;-81
2021/12/17 15:39:28;;;;;;;14.07;7.88;;;;;;;;;;4802542;29;20042;-85
2021/12/17 15:41:55;;;;;;;16.58;7.57;;;;;;;;;;4793230;29;20159;-82
2021/12/17 15:44:21;;;;;;;12.73;8.13;;;;;;;;;;4804615;29;20360;-80
2021/12/17 15:46:47;;;;;;;15.52;8.02;;;;;;;;;;4801701;29;20039;-81
2021/12/17 15:49:13;;;;;;;15.15;8.52;;;;;;;;;;4791885;29;20042;-80
2021/12/17 15:51:39;;;;;;;14.98;8.43;;;;;;;;;;4791724;29;20532;-81
2021/12/17 15:54:05;;;;;;;13.38;8.27;;;;;;;;;;4817298;29;20046;-80
2021/12/17 15:56:32;;;;;;;17.13;8.95;;;;;;;;;;4790180;29;20142;-80
2021/12/17 15:59:01;;;;;;;18.83;8.38;;;;;;;;;;4799486;29;20072;-80
2021/12/17 16:01:27;;;;;;;12.38;7.68;;;;;;;;;;4810316;29;20054;-79
2021/12/17 16:03:53;;;;;;;14.20;7.50;;;;;;;;;;4810199;29;20059;-82
2021/12/17 16:06:20;;;;;;;14.20;7.57;;;;;;;;;;4790890;29;20043;-80
2021/12/17 16:08:50;;;;;;;15.15;7.32;;;;;;;;;;4805274;29;20046;-79
2021/12/17 16:22:03;;;;;;;13.93;7.85;;;;;;;;;;4805858;29;20047;-80
2021/12/17 16:24:29;;;;;;;15.07;8.27;;;;;;;;;;4781233;29;20053;-79
2021/12/17 16:26:55;;;;;;;15.15;7.78;;;;;;;;;;4793813;29;20034;-79
2021/12/17 16:29:22;;;;;;;11.52;7.72;;;;;;;;;;4806785;29;20100;-80
2021/12/17 16:31:48;;;;;;;10.00;6.85;;;;;;;;;;4810472;29;20054;-78
2021/12/17 16:34:14;;;;;;;10.52;7.20;;;;;;;;;;4793983;29;20121;-80
2021/12/17 16:36:42;;;;;;;11.77;7.75;;;;;;;;;;4797789;29;20502;-81
2021/12/17 16:39:10;;;;;;;15.25;8.40;;;;;;;;;;4800144;29;20051;-80
2021/12/17 16:41:36;;;;;;;12.27;7.80;;;;;;;;;;4794043;29;20085;-80
2021/12/17 16:44:06;;;;;;;14.88;8.30;;;;;;;;;;4794743;29;20053;-78
2021/12/17 16:49:07;;;;;;;11.73;7.75;;;;;;;;;;4796807;29;20065;-79
2021/12/17 16:51:33;;;;;;;12.43;8.18;;;;;;;;;;4809187;29;20057;-80
2021/12/17 16:53:59;;;;;;;12.80;8.75;;;;;;;;;;4794572;29;20052;-77
2021/12/17 16:59:23;;;;;;;13.93;7.68;;;;;;;;;;4808215;29;20054;-81
2021/12/17 17:02:18;;;;;;;13.43;7.68;;;;;;;;;;4794368;29;20137;-80
2021/12/17 17:05:16;;;;;;;;;;;;;;;;;;;;;
2021/12/17 17:08:32;;;;;;;11.55;6.82;;;;;;;;;;4763251;30;20056;-79
2021/12/17 17:11:03;;;;;;;12.65;6.70;;;;;;;;;;4736085;30;20068;-80
2021/12/17 17:14:01;;;;;;;9.15;5.78;;;;;;;;;;4736838;30;20067;-80
2021/12/17 17:16:50;;;;;;;;;;;;;;;;;;;;;
2021/12/17 17:19:45;;;;;;;7.20;4.75;;;;;;;;;;4768476;30;20070;-80
2021/12/17 17:22:18;;;;;;;8.73;5.00;;;;;;;;;;4737301;30;20040;-79
2021/12/17 17:25:23;;;;;;;;;;;;;;;;;;;;;
2021/12/17 17:31:50;;;;;;;9.10;5.18;;;;;;;;;;4781792;29;20058;-80
2021/12/17 17:34:28;;;;;;;9.38;4.55;;;;;;;;;;4790682;29;20050;-83
2021/12/17 17:40:08;;;;;;;6.40;4.07;;;;;;;;;;4790624;29;20082;-81
2021/12/17 17:42:42;;;;;;;6.35;3.78;;;;;;;;;;4784086;29;20463;-83
2021/12/17 17:45:14;;;;;;;6.32;3.75;;;;;;;;;;4789747;29;20055;-81
2021/12/17 17:48:09;;;;;;;6.57;3.80;;;;;;;;;;4791114;29;20046;-81
2021/12/17 17:51:02;;;;;;;5.65;4.15;;;;;;;;;;4788607;29;20054;-84
2021/12/17 17:53:29;;;;;;;6.20;3.70;;;;;;;;;;4775598;29;20065;-80
2021/12/17 17:55:55;;;;;;;5.13;3.58;;;;;;;;;;4791135;29;20057;-80
2021/12/17 17:58:21;;;;;;;5.07;3.10;;;;;;;;;;4793414;29;20078;-80
2021/12/17 18:00:50;;;;;;;5.13;3.20;;;;;;;;;;4793820;29;20539;-81
2021/12/17 18:03:17;;;;;;;5.38;3.60;;;;;;;;;;4806201;29;20479;-80
2021/12/17 18:05:43;;;;;;;5.57;3.05;;;;;;;;;;4793329;29;20142;-80
2021/12/17 18:08:15;;;;;;;6.22;3.78;;;;;;;;;;4786055;29;20047;-81
2021/12/17 18:10:48;;;;;;;6.88;3.53;;;;;;;;;;4789558;29;20066;-81
2021/12/17 18:13:18;;;;;;;6.65;4.20;;;;;;;;;;4806899;29;20047;-80
2021/12/17 18:15:52;;;;;;;5.60;3.38;;;;;;;;;;4792908;29;20153;-80
2021/12/17 18:18:19;;;;;;;2.60;1.90;;;;;;;;;;4792621;29;20098;-80